createdAt,value
2023-01-06T00:00:42.993Z,3.07
2023-01-06T00:03:09.315Z,3.13
2023-01-06T00:05:35.527Z,3.15
2023-01-06T00:08:01.761Z,3.06
2023-01-06T00:10:27.986Z,3.09
2023-01-06T00:12:54.197Z,3.10
2023-01-06T00:15:20.411Z,3.17
2023-01-06T00:17:46.615Z,3.20
2023-01-06T00:20:12.830Z,3.25
2023-01-06T00:22:39.432Z,3.26
2023-01-06T00:25:05.712Z,3.16
2023-01-06T00:27:31.984Z,3.09
2023-01-06T00:29:58.293Z,3.07
2023-01-06T00:32:24.495Z,3.05
2023-01-06T00:34:50.725Z,3.05
2023-01-06T00:37:16.941Z,3.08
2023-01-06T00:39:43.156Z,3.08
2023-01-06T00:42:09.353Z,3.09
2023-01-06T00:44:36.791Z,3.13
2023-01-06T00:47:03.659Z,3.10
2023-01-06T00:49:29.874Z,3.17
2023-01-06T00:51:56.070Z,3.15
2023-01-06T00:54:22.294Z,3.22
2023-01-06T00:56:49.603Z,3.28
2023-01-06T00:59:16.535Z,3.36
2023-01-06T01:01:42.977Z,3.46
2023-01-06T01:04:09.347Z,3.42
2023-01-06T01:06:35.592Z,3.43
2023-01-06T01:09:02.160Z,3.48
2023-01-06T01:11:28.367Z,3.50
2023-01-06T01:13:54.587Z,3.45
2023-01-06T01:16:20.799Z,3.45
2023-01-06T01:18:47.118Z,3.54
2023-01-06T01:21:13.336Z,3.56
2023-01-06T01:23:39.580Z,3.62
2023-01-06T01:26:05.787Z,3.61
2023-01-06T01:28:32.614Z,3.55
2023-01-06T01:30:59.698Z,3.60
2023-01-06T01:33:25.991Z,3.63
2023-01-06T01:35:52.199Z,3.65
2023-01-06T01:38:18.401Z,3.66
2023-01-06T01:40:50.269Z,3.73
2023-01-06T01:43:16.659Z,3.73
2023-01-06T01:45:42.912Z,3.67
2023-01-06T01:48:18.847Z,3.67
2023-01-06T01:50:46.331Z,3.70
2023-01-06T01:53:15.120Z,3.70
2023-01-06T01:55:41.328Z,3.72
2023-01-06T01:58:12.295Z,3.73
2023-01-06T02:00:38.508Z,3.66
2023-01-06T02:03:04.799Z,3.65
2023-01-06T02:05:31.040Z,3.61
2023-01-06T02:07:57.243Z,3.64
2023-01-06T02:10:23.606Z,3.75
2023-01-06T02:12:52.333Z,3.80
2023-01-06T02:15:29.091Z,3.83
2023-01-06T02:18:02.109Z,3.82
2023-01-06T02:20:31.366Z,3.77
2023-01-06T02:23:12.899Z,3.78
2023-01-06T02:25:57.195Z,3.74
2023-01-06T02:28:23.356Z,3.82
2023-01-06T02:31:08.183Z,3.85
2023-01-06T02:33:41.388Z,3.91
2023-01-06T02:36:10.008Z,3.89
2023-01-06T02:38:46.641Z,3.92
2023-01-06T02:41:12.811Z,3.88
2023-01-06T02:43:57.760Z,3.94
2023-01-06T02:46:31.011Z,4.02
2023-01-06T02:49:00.227Z,4.04
2023-01-06T02:51:26.404Z,4.03
2023-01-06T02:54:05.554Z,4.05
2023-01-06T02:56:32.316Z,4.12
2023-01-06T02:59:06.007Z,4.09
2023-01-06T03:01:33.453Z,4.09
2023-01-06T03:04:00.629Z,4.06
2023-01-06T03:06:27.831Z,4.08
2023-01-06T03:08:54.279Z,4.08
2023-01-06T03:11:20.502Z,4.11
2023-01-06T03:13:48.296Z,4.05
2023-01-06T03:16:14.519Z,4.06
2023-01-06T03:18:41.271Z,4.05
2023-01-06T03:21:09.623Z,4.07
2023-01-06T03:23:36.841Z,4.11
2023-01-06T03:26:03.449Z,4.10
2023-01-06T03:28:29.652Z,4.14
2023-01-06T03:31:02.495Z,4.16
2023-01-06T03:33:31.591Z,4.15
2023-01-06T03:36:06.982Z,4.07
2023-01-06T03:38:37.866Z,4.14
2023-01-06T03:41:07.345Z,4.08
2023-01-06T03:43:36.331Z,4.07
2023-01-06T03:46:17.007Z,4.09
2023-01-06T03:48:52.894Z,4.06
2023-01-06T03:51:25.433Z,4.09
2023-01-06T03:54:06.891Z,4.10
2023-01-06T03:56:36.628Z,4.14
2023-01-06T03:59:03.858Z,4.14
2023-01-06T04:01:30.146Z,4.16
2023-01-06T04:03:56.437Z,4.17
2023-01-06T04:06:22.925Z,4.14
2023-01-06T04:08:49.172Z,4.12
2023-01-06T04:11:15.377Z,4.19
2023-01-06T04:13:41.586Z,4.24
2023-01-06T04:16:07.869Z,4.21
2023-01-06T04:18:34.087Z,4.23
2023-01-06T04:21:00.292Z,4.23
2023-01-06T04:23:26.495Z,4.17
2023-01-06T04:25:52.717Z,4.15
2023-01-06T04:28:18.913Z,4.14
2023-01-06T04:30:45.128Z,4.21
2023-01-06T04:33:11.652Z,4.19
2023-01-06T04:35:37.872Z,4.14
2023-01-06T04:38:04.078Z,4.24
2023-01-06T04:40:30.324Z,4.20
2023-01-06T04:42:56.539Z,4.22
2023-01-06T04:45:22.935Z,4.28
2023-01-06T04:47:49.215Z,4.26
2023-01-06T04:50:15.437Z,4.28
2023-01-06T04:52:41.661Z,4.29
2023-01-06T04:55:08.060Z,4.28
2023-01-06T04:57:34.256Z,4.27
2023-01-06T05:00:00.458Z,4.25
2023-01-06T05:02:26.676Z,4.29
2023-01-06T05:04:52.880Z,4.22
2023-01-06T05:07:19.082Z,4.33
2023-01-06T05:09:45.291Z,4.30
2023-01-06T05:12:11.516Z,4.27
2023-01-06T05:14:37.724Z,4.34
2023-01-06T05:17:03.941Z,4.39
2023-01-06T05:19:30.132Z,4.39
2023-01-06T05:21:56.337Z,4.41
2023-01-06T05:24:22.538Z,4.43
2023-01-06T05:26:48.751Z,4.52
2023-01-06T05:29:15.705Z,4.50
2023-01-06T05:31:41.944Z,4.47
2023-01-06T05:34:09.560Z,4.47
2023-01-06T05:36:35.777Z,4.48
2023-01-06T05:39:01.970Z,4.48
2023-01-06T05:41:28.184Z,4.50
2023-01-06T05:43:54.381Z,4.53
2023-01-06T05:46:20.593Z,4.54
2023-01-06T05:48:46.803Z,4.61
2023-01-06T05:51:13.869Z,4.62
2023-01-06T05:53:40.682Z,4.61
2023-01-06T05:56:07.966Z,4.60
2023-01-06T05:58:34.387Z,4.57
2023-01-06T06:01:01.000Z,4.60
2023-01-06T06:03:27.235Z,4.63
2023-01-06T06:05:53.529Z,4.71
2023-01-06T06:08:19.725Z,4.61
2023-01-06T06:10:45.933Z,4.58
2023-01-06T06:13:12.138Z,4.65
2023-01-06T06:15:38.349Z,4.67
2023-01-06T06:18:04.761Z,4.75
2023-01-06T06:20:30.971Z,4.79
2023-01-06T06:22:57.183Z,4.75
2023-01-06T06:25:23.396Z,4.78
2023-01-06T06:27:49.637Z,4.82
2023-01-06T06:30:15.846Z,4.87
2023-01-06T06:32:42.062Z,4.88
2023-01-06T06:35:08.286Z,4.88
2023-01-06T06:37:34.503Z,4.91
2023-01-06T06:40:00.708Z,4.93
2023-01-06T06:42:26.933Z,4.92
2023-01-06T06:44:53.141Z,4.96
2023-01-06T06:47:19.370Z,5.04
2023-01-06T06:49:45.584Z,5.05
2023-01-06T06:52:11.803Z,5.03
2023-01-06T06:54:38.013Z,5.05
2023-01-06T06:57:04.224Z,5.08
2023-01-06T06:59:30.428Z,5.17
2023-01-06T07:01:56.701Z,5.15
2023-01-06T07:04:22.999Z,5.17
2023-01-06T07:06:49.235Z,5.23
2023-01-06T07:09:15.443Z,5.28
2023-01-06T07:11:41.654Z,5.29
2023-01-06T07:14:07.867Z,5.31
2023-01-06T07:16:34.071Z,5.35
2023-01-06T07:19:00.274Z,5.34
2023-01-06T07:21:26.486Z,5.39
2023-01-06T07:23:52.692Z,5.36
2023-01-06T07:26:18.907Z,5.38
2023-01-06T07:28:45.122Z,5.47
2023-01-06T07:31:11.398Z,5.54
2023-01-06T07:33:37.673Z,5.65
2023-01-06T07:36:04.006Z,5.71
2023-01-06T07:38:30.216Z,5.66
2023-01-06T07:40:59.864Z,5.69
2023-01-06T07:43:26.086Z,5.77
2023-01-06T07:45:52.305Z,5.71
2023-01-06T07:48:18.551Z,5.75
2023-01-06T07:50:44.759Z,5.82
2023-01-06T07:53:10.968Z,5.80
2023-01-06T07:55:37.210Z,5.87
2023-01-06T07:58:06.803Z,5.95
2023-01-06T08:00:33.201Z,5.91
2023-01-06T08:02:59.871Z,5.94
2023-01-06T08:05:26.101Z,5.94
2023-01-06T08:07:52.302Z,5.97
2023-01-06T08:10:18.502Z,6.03
2023-01-06T08:12:44.730Z,6.09
2023-01-06T08:15:11.138Z,6.10
2023-01-06T08:17:37.371Z,6.20
2023-01-06T08:20:03.660Z,6.17
2023-01-06T08:22:29.889Z,6.25
2023-01-06T08:24:56.106Z,6.27
2023-01-06T08:27:22.320Z,6.32
2023-01-06T08:29:48.531Z,6.42
2023-01-06T08:32:14.762Z,6.43
2023-01-06T08:34:41.011Z,6.47
2023-01-06T08:37:07.221Z,6.52
2023-01-06T08:39:33.422Z,6.57
2023-01-06T08:41:59.678Z,6.64
2023-01-06T08:44:25.942Z,6.75
2023-01-06T08:46:52.165Z,6.76
2023-01-06T08:49:18.397Z,6.80
2023-01-06T08:51:44.606Z,6.82
2023-01-06T08:54:10.820Z,6.81
2023-01-06T08:56:37.018Z,6.97
2023-01-06T08:59:03.573Z,6.98
2023-01-06T09:01:30.906Z,7.06
2023-01-06T09:03:57.432Z,7.16
2023-01-06T09:06:23.634Z,7.31
2023-01-06T09:08:49.839Z,7.49
2023-01-06T09:11:16.117Z,7.53
2023-01-06T09:13:42.343Z,7.68
2023-01-06T09:16:08.866Z,7.76
2023-01-06T09:18:35.148Z,7.81
2023-01-06T09:21:01.404Z,7.78
2023-01-06T09:23:27.624Z,7.85
2023-01-06T09:25:57.000Z,7.87
2023-01-06T09:28:23.213Z,7.86
2023-01-06T09:30:49.412Z,7.97
2023-01-06T09:33:15.864Z,7.97
2023-01-06T09:35:43.105Z,8.08
2023-01-06T09:38:09.332Z,8.13
2023-01-06T09:41:04.994Z,8.14
2023-01-06T09:43:43.249Z,8.17
2023-01-06T09:46:09.505Z,8.23
2023-01-06T09:48:37.171Z,8.32
2023-01-06T09:51:03.831Z,8.40
2023-01-06T09:53:33.868Z,8.38
2023-01-06T09:56:01.105Z,8.44
2023-01-06T09:58:28.728Z,8.49
2023-01-06T10:00:55.121Z,8.53
2023-01-06T10:03:22.028Z,8.52
2023-01-06T10:06:07.070Z,8.62
2023-01-06T10:08:36.093Z,8.65
2023-01-06T10:11:08.157Z,8.65
2023-01-06T10:13:40.342Z,8.55
2023-01-06T10:16:06.533Z,8.66
2023-01-06T10:18:36.752Z,8.70
2023-01-06T10:21:22.649Z,8.75
2023-01-06T10:23:51.644Z,8.71
2023-01-06T10:26:37.855Z,8.72
2023-01-06T10:29:16.855Z,8.71
2023-01-06T10:31:43.760Z,8.72
2023-01-06T10:34:20.417Z,8.74
2023-01-06T10:36:46.946Z,8.72
2023-01-06T10:39:13.577Z,8.72
2023-01-06T10:41:41.806Z,8.83
2023-01-06T10:44:09.413Z,8.88
2023-01-06T10:46:35.700Z,8.87
2023-01-06T10:49:02.115Z,8.84
2023-01-06T10:51:38.256Z,8.91
2023-01-06T10:54:05.989Z,8.95
2023-01-06T10:56:32.209Z,8.99
2023-01-06T10:59:00.400Z,8.94
2023-01-06T11:01:26.844Z,8.97
2023-01-06T11:04:08.938Z,9.02
2023-01-06T11:06:35.493Z,9.02
2023-01-06T11:09:28.222Z,9.01
2023-01-06T11:11:54.540Z,8.98
2023-01-06T11:14:21.002Z,8.96
2023-01-06T11:16:57.272Z,8.99
2023-01-06T11:19:24.918Z,8.99
2023-01-06T11:21:51.123Z,9.07
2023-01-06T11:24:17.328Z,9.11
2023-01-06T11:26:44.157Z,9.13
2023-01-06T11:29:17.128Z,9.16
2023-01-06T11:31:43.374Z,9.17
2023-01-06T11:34:15.451Z,9.19
2023-01-06T11:36:43.222Z,9.24
2023-01-06T11:39:13.497Z,9.23
2023-01-06T11:41:40.415Z,9.26
2023-01-06T11:44:06.621Z,9.25
2023-01-06T11:46:32.828Z,9.27
2023-01-06T11:49:01.227Z,9.35
2023-01-06T11:51:42.689Z,9.34
2023-01-06T11:54:38.228Z,9.35
2023-01-06T11:57:07.194Z,9.45
2023-01-06T11:59:38.951Z,9.39
2023-01-06T12:02:07.149Z,9.28
2023-01-06T12:04:38.560Z,9.27
2023-01-06T12:07:08.681Z,9.25
2023-01-06T12:09:38.207Z,9.27
2023-01-06T12:12:04.820Z,9.17
2023-01-06T12:14:33.638Z,9.14
2023-01-06T12:17:13.125Z,9.11
2023-01-06T12:19:44.035Z,9.12
2023-01-06T12:22:33.474Z,9.18
2023-01-06T12:24:59.693Z,9.22
2023-01-06T12:27:29.103Z,9.37
2023-01-06T12:29:55.546Z,9.43
2023-01-06T12:32:21.776Z,9.45
2023-01-06T12:34:48.005Z,9.48
2023-01-06T12:37:28.054Z,9.41
2023-01-06T12:40:04.788Z,9.35
2023-01-06T12:42:30.985Z,9.19
2023-01-06T12:44:59.518Z,9.18
2023-01-06T12:47:28.741Z,9.21
2023-01-06T12:50:02.003Z,9.16
2023-01-06T12:52:32.231Z,9.09
2023-01-06T12:54:58.631Z,9.03
2023-01-06T12:57:30.069Z,9.08
2023-01-06T12:59:56.235Z,9.18
2023-01-06T13:02:35.500Z,9.27
2023-01-06T13:05:20.765Z,9.30
2023-01-06T13:07:48.215Z,9.39
2023-01-06T13:10:30.551Z,9.40
2023-01-06T13:13:05.153Z,9.44
2023-01-06T13:15:31.799Z,9.41
2023-01-06T13:18:16.330Z,9.56
2023-01-06T13:20:50.151Z,9.71
2023-01-06T13:23:16.301Z,9.55
2023-01-06T13:26:01.123Z,9.29
2023-01-06T13:28:44.070Z,9.21
2023-01-06T13:31:23.072Z,9.19
2023-01-06T13:33:49.248Z,9.16
2023-01-06T13:36:19.177Z,9.03
2023-01-06T13:39:04.231Z,8.88
2023-01-06T13:41:31.685Z,8.81
2023-01-06T13:43:57.915Z,8.73
2023-01-06T13:46:24.361Z,8.69
2023-01-06T13:48:51.497Z,8.64
2023-01-06T13:51:18.317Z,8.70
2023-01-06T13:53:45.153Z,8.62
2023-01-06T13:56:14.418Z,8.50
2023-01-06T13:58:44.243Z,8.40
2023-01-06T14:01:10.541Z,8.26
2023-01-06T14:03:40.047Z,8.14
2023-01-06T14:06:09.907Z,8.19
2023-01-06T14:08:52.906Z,8.09
2023-01-06T14:11:25.061Z,7.97
2023-01-06T14:13:51.988Z,8.02
2023-01-06T14:16:18.339Z,7.90
2023-01-06T14:18:45.241Z,7.84
2023-01-06T14:21:11.411Z,7.83
2023-01-06T14:23:37.609Z,7.85
2023-01-06T14:26:03.877Z,7.81
2023-01-06T14:28:31.009Z,7.76
2023-01-06T14:31:20.746Z,7.77
2023-01-06T14:33:47.011Z,7.77
2023-01-06T14:36:13.698Z,7.73
2023-01-06T14:38:52.946Z,7.66
2023-01-06T14:41:24.259Z,7.61
2023-01-06T14:43:54.507Z,7.63
2023-01-06T14:46:23.887Z,7.53
2023-01-06T14:48:59.759Z,7.56
2023-01-06T14:51:25.978Z,7.55
2023-01-06T14:54:02.518Z,7.41
2023-01-06T14:56:28.764Z,7.37
2023-01-06T14:59:04.765Z,7.34
2023-01-06T15:01:32.433Z,7.40
2023-01-06T15:03:59.341Z,7.37
2023-01-06T15:06:26.253Z,7.36
2023-01-06T15:08:52.529Z,7.33
2023-01-06T15:11:26.332Z,7.19
2023-01-06T15:13:52.540Z,7.12
2023-01-06T15:16:23.408Z,7.15
2023-01-06T15:18:49.663Z,7.15
2023-01-06T15:21:15.868Z,7.10
2023-01-06T15:23:42.570Z,7.01
2023-01-06T15:26:14.158Z,6.95
2023-01-06T15:28:40.361Z,6.93
2023-01-06T15:31:15.327Z,6.90
2023-01-06T15:33:41.697Z,6.86
2023-01-06T15:36:08.029Z,6.88
2023-01-06T15:38:36.255Z,6.77
2023-01-06T15:41:02.474Z,6.76
2023-01-06T15:43:28.678Z,6.75
2023-01-06T15:46:13.168Z,6.68
2023-01-06T15:48:39.579Z,6.69
2023-01-06T15:51:11.973Z,6.70
2023-01-06T15:53:38.175Z,6.70
2023-01-06T15:56:06.096Z,6.66
2023-01-06T15:58:33.252Z,6.63
2023-01-06T16:01:05.523Z,6.58
2023-01-06T16:03:31.788Z,6.54
2023-01-06T16:06:12.401Z,6.53
2023-01-06T16:08:38.946Z,6.52
2023-01-06T16:11:12.400Z,6.52
2023-01-06T16:13:39.527Z,6.49
2023-01-06T16:16:15.013Z,6.49
2023-01-06T16:18:41.708Z,6.51
2023-01-06T16:21:12.450Z,6.50
2023-01-06T16:23:38.664Z,6.49
2023-01-06T16:26:05.738Z,6.52
2023-01-06T16:28:31.955Z,6.54
2023-01-06T16:31:05.370Z,6.59
2023-01-06T16:33:35.592Z,6.62
2023-01-06T16:36:01.875Z,6.64
2023-01-06T16:38:28.097Z,6.63
2023-01-06T16:40:54.311Z,6.63
2023-01-06T16:43:20.544Z,6.61
2023-01-06T16:45:46.813Z,6.64
2023-01-06T16:48:13.790Z,6.68
2023-01-06T16:50:40.339Z,6.64
2023-01-06T16:53:09.728Z,6.58
2023-01-06T16:55:36.391Z,6.51
2023-01-06T16:58:05.735Z,6.43
2023-01-06T17:00:31.952Z,6.42
2023-01-06T17:02:58.197Z,6.38
2023-01-06T17:05:25.527Z,6.34
2023-01-06T17:08:12.171Z,6.30
2023-01-06T17:10:39.657Z,6.31
2023-01-06T17:13:05.958Z,6.35
2023-01-06T17:15:32.214Z,6.34
2023-01-06T17:17:58.505Z,6.39
2023-01-06T17:20:24.769Z,6.33
2023-01-06T17:22:51.137Z,6.34
2023-01-06T17:25:17.403Z,6.32
2023-01-06T17:27:43.760Z,6.31
2023-01-06T17:30:14.538Z,6.32
2023-01-06T17:32:41.253Z,6.30
2023-01-06T17:35:23.612Z,6.28
2023-01-06T17:37:49.835Z,6.29
2023-01-06T17:40:17.088Z,6.30
2023-01-06T17:42:43.305Z,6.29
2023-01-06T17:45:21.402Z,6.32
2023-01-06T17:47:50.807Z,6.32
2023-01-06T17:50:25.481Z,6.32
2023-01-06T17:52:51.723Z,6.28
2023-01-06T17:55:27.099Z,6.26
2023-01-06T17:57:56.421Z,6.31
2023-01-06T18:00:33.242Z,6.30
2023-01-06T18:03:00.878Z,6.35
2023-01-06T18:05:27.062Z,6.35
2023-01-06T18:07:54.349Z,6.36
2023-01-06T18:10:20.572Z,6.39
2023-01-06T18:12:46.799Z,6.39
2023-01-06T18:15:33.128Z,6.39
2023-01-06T18:18:02.739Z,6.37
2023-01-06T18:20:28.973Z,6.41
2023-01-06T18:22:56.073Z,6.40
2023-01-06T18:25:23.366Z,6.41
2023-01-06T18:27:49.848Z,6.38
2023-01-06T18:30:19.806Z,6.38
2023-01-06T18:32:46.047Z,6.40
2023-01-06T18:35:19.296Z,6.41
2023-01-06T18:37:47.017Z,6.41
2023-01-06T18:40:14.074Z,6.41
2023-01-06T18:42:41.402Z,6.39
2023-01-06T18:45:07.753Z,6.30
2023-01-06T18:47:36.613Z,6.28
2023-01-06T18:50:21.625Z,6.28
2023-01-06T18:52:51.237Z,6.28
2023-01-06T18:55:23.730Z,6.25
2023-01-06T18:57:53.144Z,6.26
2023-01-06T19:00:32.715Z,6.26
2023-01-06T19:03:14.167Z,6.34
2023-01-06T19:05:40.393Z,6.30
2023-01-06T19:08:10.547Z,6.26
2023-01-06T19:10:36.766Z,6.29
2023-01-06T19:13:02.989Z,6.25
2023-01-06T19:15:29.215Z,6.21
2023-01-06T19:17:55.447Z,6.18
2023-01-06T19:20:22.902Z,6.19
2023-01-06T19:22:49.204Z,6.18
2023-01-06T19:25:15.358Z,6.14
2023-01-06T19:27:44.318Z,6.12
2023-01-06T19:30:13.802Z,6.10
2023-01-06T19:32:40.038Z,6.05
2023-01-06T19:35:10.844Z,6.02
2023-01-06T19:37:37.096Z,5.99
2023-01-06T19:40:03.440Z,6.00
2023-01-06T19:42:29.647Z,6.01
2023-01-06T19:44:59.779Z,6.01
2023-01-06T19:47:31.074Z,5.98
2023-01-06T19:49:58.067Z,6.05
2023-01-06T19:52:31.881Z,6.10
2023-01-06T19:55:16.988Z,6.18
2023-01-06T19:57:43.802Z,6.22
2023-01-06T20:00:29.392Z,6.15
2023-01-06T20:02:56.567Z,6.16
2023-01-06T20:05:23.519Z,6.16
2023-01-06T20:07:49.738Z,6.19
2023-01-06T20:10:16.192Z,6.28
2023-01-06T20:12:42.429Z,6.29
2023-01-06T20:15:08.906Z,6.39
2023-01-06T20:17:35.117Z,6.36
2023-01-06T20:20:01.433Z,6.34
2023-01-06T20:22:27.666Z,6.22
2023-01-06T20:24:54.069Z,6.16
2023-01-06T20:27:20.285Z,6.22
2023-01-06T20:29:46.581Z,6.26
2023-01-06T20:32:12.823Z,6.35
2023-01-06T20:34:39.086Z,6.34
2023-01-06T20:37:13.711Z,6.32
2023-01-06T20:39:39.959Z,6.30
2023-01-06T20:42:06.163Z,6.36
2023-01-06T20:44:32.395Z,6.38
2023-01-06T20:46:58.907Z,6.37
2023-01-06T20:49:25.154Z,6.36
2023-01-06T20:51:51.365Z,6.34
2023-01-06T20:54:17.641Z,6.27
2023-01-06T20:56:47.067Z,6.22
2023-01-06T20:59:16.471Z,6.20
2023-01-06T21:01:47.021Z,6.14
2023-01-06T21:04:13.649Z,6.07
2023-01-06T21:06:40.896Z,6.05
2023-01-06T21:09:07.238Z,6.00
2023-01-06T21:11:34.848Z,5.94
2023-01-06T21:14:01.407Z,5.92
2023-01-06T21:16:28.607Z,5.89
2023-01-06T21:18:54.890Z,5.85
2023-01-06T21:21:21.191Z,5.84
2023-01-06T21:23:49.640Z,5.81
2023-01-06T21:26:16.154Z,5.81
2023-01-06T21:28:42.375Z,5.80
2023-01-06T21:31:08.703Z,5.74
2023-01-06T21:33:34.950Z,5.71
2023-01-06T21:36:01.186Z,5.68
2023-01-06T21:38:27.398Z,5.68
2023-01-06T21:41:00.837Z,5.65
2023-01-06T21:43:27.040Z,5.61
2023-01-06T21:45:53.270Z,5.57
2023-01-06T21:48:19.505Z,5.54
2023-01-06T21:50:45.758Z,5.51
2023-01-06T21:53:12.027Z,5.48
2023-01-06T21:55:38.253Z,5.47
2023-01-06T21:58:04.479Z,5.41
2023-01-06T22:00:30.736Z,5.44
2023-01-06T22:03:02.133Z,5.38
2023-01-06T22:05:30.915Z,5.39
2023-01-06T22:07:57.148Z,5.37
2023-01-06T22:10:23.807Z,5.31
2023-01-06T22:12:50.496Z,5.29
2023-01-06T22:15:16.716Z,5.27
2023-01-06T22:17:42.980Z,5.26
2023-01-06T22:20:09.496Z,5.26
2023-01-06T22:22:35.717Z,5.27
2023-01-06T22:25:01.925Z,5.18
2023-01-06T22:27:28.144Z,5.16
2023-01-06T22:29:54.355Z,5.15
2023-01-06T22:32:20.568Z,5.18
2023-01-06T22:34:46.771Z,5.13
2023-01-06T22:37:12.965Z,5.11
2023-01-06T22:39:39.175Z,5.07
2023-01-06T22:42:05.390Z,5.04
2023-01-06T22:44:31.585Z,5.04
2023-01-06T22:46:57.794Z,5.08
2023-01-06T22:49:24.003Z,5.06
2023-01-06T22:51:50.286Z,5.01
2023-01-06T22:54:16.499Z,5.05
2023-01-06T22:56:42.706Z,5.06
2023-01-06T22:59:09.037Z,4.98
2023-01-06T23:01:35.321Z,4.98
2023-01-06T23:04:01.597Z,4.86
2023-01-06T23:06:27.828Z,4.89
2023-01-06T23:09:00.035Z,4.85
2023-01-06T23:11:27.023Z,4.79
2023-01-06T23:13:54.291Z,4.75
2023-01-06T23:16:20.544Z,4.80
2023-01-06T23:18:47.328Z,4.80
2023-01-06T23:21:14.765Z,4.76
2023-01-06T23:23:41.249Z,4.65
2023-01-06T23:26:08.536Z,4.61
2023-01-06T23:28:34.750Z,4.66
2023-01-06T23:31:08.226Z,4.61
2023-01-06T23:33:40.831Z,4.52
2023-01-06T23:36:07.416Z,4.54
2023-01-06T23:38:33.656Z,4.54
2023-01-06T23:41:00.664Z,4.59
2023-01-06T23:43:26.992Z,4.55
2023-01-06T23:45:53.213Z,4.61
2023-01-06T23:48:19.435Z,4.60
2023-01-06T23:50:49.081Z,4.56
2023-01-06T23:53:15.286Z,4.51
2023-01-06T23:55:41.499Z,4.51
2023-01-06T23:58:07.710Z,4.50
